sensor_id;sensor_type;location;lat;lon;timestamp;pressure;altitude;pressure_sealevel;temperature;humidity
11339;BME280;5724;42.684;23.252;2022-10-16T00:00:15;94985.00;;;7.16;98.32
11339;BME280;5724;42.684;23.252;2022-10-16T00:02:41;94983.41;;;7.24;98.52
11339;BME280;5724;42.684;23.252;2022-10-16T00:05:06;94995.38;;;7.23;98.08
11339;BME280;5724;42.684;23.252;2022-10-16T00:07:32;94994.44;;;7.19;98.26
11339;BME280;5724;42.684;23.252;2022-10-16T00:09:57;94997.47;;;7.09;98.82
11339;BME280;5724;42.684;23.252;2022-10-16T00:12:22;94995.88;;;7.16;98.84
11339;BME280;5724;42.684;23.252;2022-10-16T00:14:48;94996.34;;;7.10;99.25
11339;BME280;5724;42.684;23.252;2022-10-16T00:17:13;94994.28;;;7.07;99.00
11339;BME280;5724;42.684;23.252;2022-10-16T00:19:39;94993.81;;;7.05;99.04
11339;BME280;5724;42.684;23.252;2022-10-16T00:22:04;95001.78;;;7.10;98.94
11339;BME280;5724;42.684;23.252;2022-10-16T00:24:30;94999.22;;;7.13;99.33
11339;BME280;5724;42.684;23.252;2022-10-16T00:26:55;95010.41;;;7.12;99.27
11339;BME280;5724;42.684;23.252;2022-10-16T00:29:21;95006.88;;;7.20;99.11
11339;BME280;5724;42.684;23.252;2022-10-16T00:31:46;95010.25;;;7.26;98.97
11339;BME280;5724;42.684;23.252;2022-10-16T00:34:11;95004.81;;;7.26;99.70
11339;BME280;5724;42.684;23.252;2022-10-16T00:36:37;95010.41;;;7.21;99.64
11339;BME280;5724;42.684;23.252;2022-10-16T00:39:02;95011.69;;;7.23;99.78
11339;BME280;5724;42.684;23.252;2022-10-16T00:41:28;95010.25;;;7.17;98.93
11339;BME280;5724;42.684;23.252;2022-10-16T00:44:00;95005.16;;;7.15;98.96
11339;BME280;5724;42.684;23.252;2022-10-16T00:46:29;95005.16;;;7.15;98.77
11339;BME280;5724;42.684;23.252;2022-10-16T00:51:44;94996.50;;;6.87;100.00
11339;BME280;5724;42.684;23.252;2022-10-16T00:54:17;94997.94;;;6.94;99.50
11339;BME280;5724;42.684;23.252;2022-10-16T00:56:43;95002.75;;;6.97;99.20
11339;BME280;5724;42.684;23.252;2022-10-16T00:59:16;94999.56;;;6.86;100.00
11339;BME280;5724;42.684;23.252;2022-10-16T01:01:43;95002.25;;;6.95;99.92
11339;BME280;5724;42.684;23.252;2022-10-16T01:04:08;95005.94;;;6.99;99.75
11339;BME280;5724;42.684;23.252;2022-10-16T01:09:28;95007.84;;;6.89;100.00
11339;BME280;5724;42.684;23.252;2022-10-16T01:12:23;95012.00;;;6.87;100.00
11339;BME280;5724;42.684;23.252;2022-10-16T01:17:43;95005.28;;;6.84;99.90
11339;BME280;5724;42.684;23.252;2022-10-16T01:28:27;94983.72;;;6.71;100.00
11339;BME280;5724;42.684;23.252;2022-10-16T01:30:58;95000.19;;;6.83;99.89
11339;BME280;5724;42.684;23.252;2022-10-16T01:33:30;94989.31;;;6.74;100.00
11339;BME280;5724;42.684;23.252;2022-10-16T01:36:07;94996.03;;;6.77;100.00
11339;BME280;5724;42.684;23.252;2022-10-16T01:38:38;94999.22;;;6.70;100.00
11339;BME280;5724;42.684;23.252;2022-10-16T01:41:17;94997.44;;;6.74;100.00
11339;BME280;5724;42.684;23.252;2022-10-16T01:43:48;95005.47;;;6.79;100.00
11339;BME280;5724;42.684;23.252;2022-10-16T01:46:18;94993.13;;;6.73;100.00
11339;BME280;5724;42.684;23.252;2022-10-16T01:48:46;94998.56;;;6.73;100.00
11339;BME280;5724;42.684;23.252;2022-10-16T01:51:15;95007.50;;;6.65;100.00
11339;BME280;5724;42.684;23.252;2022-10-16T01:53:43;95010.72;;;6.67;100.00
11339;BME280;5724;42.684;23.252;2022-10-16T01:56:12;94994.53;;;6.45;100.00
11339;BME280;5724;42.684;23.252;2022-10-16T01:58:45;95015.00;;;6.59;100.00
11339;BME280;5724;42.684;23.252;2022-10-16T02:01:14;95018.53;;;6.60;99.79
11339;BME280;5724;42.684;23.252;2022-10-16T02:03:43;95014.22;;;6.59;100.00
11339;BME280;5724;42.684;23.252;2022-10-16T02:06:10;95021.25;;;6.60;100.00
11339;BME280;5724;42.684;23.252;2022-10-16T02:08:35;95027.09;;;6.45;100.00
11339;BME280;5724;42.684;23.252;2022-10-16T02:11:02;95024.56;;;6.48;100.00
11339;BME280;5724;42.684;23.252;2022-10-16T02:13:32;95025.19;;;6.45;100.00
11339;BME280;5724;42.684;23.252;2022-10-16T02:15:59;95037.19;;;6.53;100.00
11339;BME280;5724;42.684;23.252;2022-10-16T02:18:26;95032.09;;;6.60;100.00
11339;BME280;5724;42.684;23.252;2022-10-16T02:21:00;95039.59;;;6.63;100.00
11339;BME280;5724;42.684;23.252;2022-10-16T02:23:39;95040.59;;;6.67;100.00
11339;BME280;5724;42.684;23.252;2022-10-16T02:26:08;95046.31;;;6.66;100.00
11339;BME280;5724;42.684;23.252;2022-10-16T02:28:45;95037.22;;;6.70;100.00
11339;BME280;5724;42.684;23.252;2022-10-16T02:31:16;95046.66;;;6.73;100.00
11339;BME280;5724;42.684;23.252;2022-10-16T02:33:44;95043.00;;;6.77;100.00
11339;BME280;5724;42.684;23.252;2022-10-16T02:36:11;95038.03;;;6.79;100.00
11339;BME280;5724;42.684;23.252;2022-10-16T02:38:37;95031.00;;;6.78;100.00
11339;BME280;5724;42.684;23.252;2022-10-16T02:41:04;95041.22;;;6.73;100.00
11339;BME280;5724;42.684;23.252;2022-10-16T02:43:29;95036.59;;;6.73;100.00
11339;BME280;5724;42.684;23.252;2022-10-16T02:45:55;95049.03;;;6.74;100.00
11339;BME280;5724;42.684;23.252;2022-10-16T02:48:20;95054.47;;;6.74;100.00
11339;BME280;5724;42.684;23.252;2022-10-16T02:50:46;95056.91;;;6.76;100.00
11339;BME280;5724;42.684;23.252;2022-10-16T02:53:11;95055.94;;;6.80;100.00
11339;BME280;5724;42.684;23.252;2022-10-16T02:55:37;95053.69;;;6.74;100.00
11339;BME280;5724;42.684;23.252;2022-10-16T02:58:02;95050.47;;;6.72;100.00
11339;BME280;5724;42.684;23.252;2022-10-16T03:00:28;95061.50;;;6.75;100.00
11339;BME280;5724;42.684;23.252;2022-10-16T03:02:54;95062.00;;;6.77;100.00
11339;BME280;5724;42.684;23.252;2022-10-16T03:05:19;95062.78;;;6.69;100.00
11339;BME280;5724;42.684;23.252;2022-10-16T03:07:45;95059.44;;;6.72;100.00
11339;BME280;5724;42.684;23.252;2022-10-16T03:10:10;95060.06;;;6.69;100.00
11339;BME280;5724;42.684;23.252;2022-10-16T03:12:36;95054.31;;;6.71;99.99
11339;BME280;5724;42.684;23.252;2022-10-16T03:15:02;95064.84;;;6.64;100.00
11339;BME280;5724;42.684;23.252;2022-10-16T03:17:27;95060.03;;;6.52;100.00
11339;BME280;5724;42.684;23.252;2022-10-16T03:19:53;95059.16;;;6.34;100.00
11339;BME280;5724;42.684;23.252;2022-10-16T03:22:18;95063.47;;;6.35;100.00
11339;BME280;5724;42.684;23.252;2022-10-16T03:24:43;95067.16;;;6.30;100.00
11339;BME280;5724;42.684;23.252;2022-10-16T03:27:09;95077.44;;;6.11;100.00
11339;BME280;5724;42.684;23.252;2022-10-16T03:29:34;95076.63;;;5.88;100.00
11339;BME280;5724;42.684;23.252;2022-10-16T03:32:00;95063.53;;;5.82;100.00
11339;BME280;5724;42.684;23.252;2022-10-16T03:34:26;95074.56;;;5.85;100.00
11339;BME280;5724;42.684;23.252;2022-10-16T03:36:51;95077.19;;;5.90;100.00
11339;BME280;5724;42.684;23.252;2022-10-16T03:39:17;95075.75;;;5.93;100.00
11339;BME280;5724;42.684;23.252;2022-10-16T03:41:43;95079.75;;;5.95;100.00
11339;BME280;5724;42.684;23.252;2022-10-16T03:44:08;95078.47;;;5.93;100.00
11339;BME280;5724;42.684;23.252;2022-10-16T03:46:34;95071.00;;;5.76;100.00
11339;BME280;5724;42.684;23.252;2022-10-16T03:48:59;95059.84;;;5.78;100.00
11339;BME280;5724;42.684;23.252;2022-10-16T03:51:25;95071.47;;;5.78;100.00
11339;BME280;5724;42.684;23.252;2022-10-16T03:53:50;95068.06;;;5.64;100.00
11339;BME280;5724;42.684;23.252;2022-10-16T03:56:16;95065.91;;;5.52;100.00
11339;BME280;5724;42.684;23.252;2022-10-16T03:58:41;95064.59;;;5.50;100.00
11339;BME280;5724;42.684;23.252;2022-10-16T04:01:07;95064.13;;;5.47;100.00
11339;BME280;5724;42.684;23.252;2022-10-16T04:03:32;95066.66;;;5.44;100.00
11339;BME280;5724;42.684;23.252;2022-10-16T04:05:58;95065.91;;;5.52;100.00
11339;BME280;5724;42.684;23.252;2022-10-16T04:08:23;95073.41;;;5.55;100.00
11339;BME280;5724;42.684;23.252;2022-10-16T04:10:49;95066.78;;;5.61;100.00
11339;BME280;5724;42.684;23.252;2022-10-16T04:13:14;95063.91;;;5.66;100.00
11339;BME280;5724;42.684;23.252;2022-10-16T04:15:40;95072.25;;;5.70;100.00
11339;BME280;5724;42.684;23.252;2022-10-16T04:18:05;95073.22;;;5.74;100.00
11339;BME280;5724;42.684;23.252;2022-10-16T04:20:31;95076.91;;;5.78;100.00
11339;BME280;5724;42.684;23.252;2022-10-16T04:22:57;95064.91;;;5.70;100.00
11339;BME280;5724;42.684;23.252;2022-10-16T04:25:22;95071.56;;;5.64;100.00
11339;BME280;5724;42.684;23.252;2022-10-16T04:27:48;95077.09;;;5.59;100.00
11339;BME280;5724;42.684;23.252;2022-10-16T04:30:13;95084.00;;;5.65;100.00
11339;BME280;5724;42.684;23.252;2022-10-16T04:32:40;95076.44;;;5.54;100.00
11339;BME280;5724;42.684;23.252;2022-10-16T04:35:06;95079.94;;;5.54;100.00
11339;BME280;5724;42.684;23.252;2022-10-16T04:37:32;95076.44;;;5.54;100.00
11339;BME280;5724;42.684;23.252;2022-10-16T04:39:57;95080.44;;;5.56;100.00
11339;BME280;5724;42.684;23.252;2022-10-16T04:42:23;95084.25;;;5.55;100.00
11339;BME280;5724;42.684;23.252;2022-10-16T04:44:48;95087.16;;;5.59;100.00
11339;BME280;5724;42.684;23.252;2022-10-16T04:47:13;95085.75;;;5.61;100.00
11339;BME280;5724;42.684;23.252;2022-10-16T04:49:39;95091.66;;;5.63;100.00
11339;BME280;5724;42.684;23.252;2022-10-16T04:52:05;95100.75;;;5.67;100.00
11339;BME280;5724;42.684;23.252;2022-10-16T04:54:30;95097.34;;;5.53;100.00
11339;BME280;5724;42.684;23.252;2022-10-16T04:56:56;95097.72;;;5.60;100.00
11339;BME280;5724;42.684;23.252;2022-10-16T04:59:22;95094.94;;;5.52;100.00
11339;BME280;5724;42.684;23.252;2022-10-16T05:01:48;95106.91;;;5.59;100.00
11339;BME280;5724;42.684;23.252;2022-10-16T05:04:14;95106.00;;;5.64;100.00
11339;BME280;5724;42.684;23.252;2022-10-16T05:06:40;95117.66;;;5.64;100.00
11339;BME280;5724;42.684;23.252;2022-10-16T05:09:06;95117.91;;;5.54;100.00
11339;BME280;5724;42.684;23.252;2022-10-16T05:11:31;95115.19;;;5.54;100.00
11339;BME280;5724;42.684;23.252;2022-10-16T05:13:57;95121.09;;;5.56;100.00
11339;BME280;5724;42.684;23.252;2022-10-16T05:16:22;95118.88;;;5.58;100.00
11339;BME280;5724;42.684;23.252;2022-10-16T05:18:48;95120.72;;;5.49;100.00
11339;BME280;5724;42.684;23.252;2022-10-16T05:21:13;95128.59;;;5.59;100.00
11339;BME280;5724;42.684;23.252;2022-10-16T05:23:39;95130.00;;;5.70;100.00
11339;BME280;5724;42.684;23.252;2022-10-16T05:26:04;95120.75;;;5.71;100.00
11339;BME280;5724;42.684;23.252;2022-10-16T05:28:31;95122.66;;;5.71;100.00
11339;BME280;5724;42.684;23.252;2022-10-16T05:30:57;95134.03;;;5.82;100.00
11339;BME280;5724;42.684;23.252;2022-10-16T05:33:26;95128.88;;;5.94;99.67
11339;BME280;5724;42.684;23.252;2022-10-16T05:35:51;95136.69;;;5.95;99.83
11339;BME280;5724;42.684;23.252;2022-10-16T05:38:17;95129.75;;;6.03;100.00
11339;BME280;5724;42.684;23.252;2022-10-16T05:40:50;95134.94;;;6.22;100.00
11339;BME280;5724;42.684;23.252;2022-10-16T05:43:16;95102.19;;;6.10;100.00
11339;BME280;5724;42.684;23.252;2022-10-16T05:45:41;95136.78;;;6.44;99.88
11339;BME280;5724;42.684;23.252;2022-10-16T05:48:07;95149.97;;;6.59;99.02
11339;BME280;5724;42.684;23.252;2022-10-16T05:50:32;95155.44;;;6.68;98.32
11339;BME280;5724;42.684;23.252;2022-10-16T05:52:57;95150.03;;;6.76;98.04
11339;BME280;5724;42.684;23.252;2022-10-16T05:55:23;95149.09;;;6.89;98.04
11339;BME280;5724;42.684;23.252;2022-10-16T05:57:48;95153.59;;;7.03;96.86
11339;BME280;5724;42.684;23.252;2022-10-16T06:00:14;95147.59;;;7.14;96.21
11339;BME280;5724;42.684;23.252;2022-10-16T06:02:39;95160.88;;;7.42;96.43
11339;BME280;5724;42.684;23.252;2022-10-16T06:05:05;95173.19;;;7.48;94.88
11339;BME280;5724;42.684;23.252;2022-10-16T06:07:34;95174.16;;;7.61;94.27
11339;BME280;5724;42.684;23.252;2022-10-16T06:10:01;95163.75;;;7.80;93.66
11339;BME280;5724;42.684;23.252;2022-10-16T06:12:27;95173.69;;;7.76;92.76
11339;BME280;5724;42.684;23.252;2022-10-16T06:14:53;95175.28;;;7.94;93.19
11339;BME280;5724;42.684;23.252;2022-10-16T06:17:18;95173.50;;;8.16;92.63
11339;BME280;5724;42.684;23.252;2022-10-16T06:19:44;95182.47;;;8.16;92.04
11339;BME280;5724;42.684;23.252;2022-10-16T06:22:09;95178.75;;;8.29;91.90
11339;BME280;5724;42.684;23.252;2022-10-16T06:24:35;95176.97;;;8.51;91.33
11339;BME280;5724;42.684;23.252;2022-10-16T06:27:00;95187.19;;;8.63;89.63
11339;BME280;5724;42.684;23.252;2022-10-16T06:29:26;95197.72;;;8.81;89.24
11339;BME280;5724;42.684;23.252;2022-10-16T06:31:51;95192.91;;;8.78;89.87
11339;BME280;5724;42.684;23.252;2022-10-16T06:34:18;95201.31;;;9.03;88.71
11339;BME280;5724;42.684;23.252;2022-10-16T06:36:43;95193.41;;;9.10;89.99
11339;BME280;5724;42.684;23.252;2022-10-16T06:39:09;95201.34;;;9.24;88.19
11339;BME280;5724;42.684;23.252;2022-10-16T06:41:34;95196.69;;;9.54;91.05
11339;BME280;5724;42.684;23.252;2022-10-16T06:44:00;95201.28;;;9.83;89.26
11339;BME280;5724;42.684;23.252;2022-10-16T06:46:26;95201.03;;;9.96;86.00
11339;BME280;5724;42.684;23.252;2022-10-16T06:48:55;95208.34;;;9.63;85.42
11339;BME280;5724;42.684;23.252;2022-10-16T06:51:22;95212.47;;;9.48;84.27
11339;BME280;5724;42.684;23.252;2022-10-16T06:53:53;95214.34;;;9.77;83.51
11339;BME280;5724;42.684;23.252;2022-10-16T06:56:27;95219.66;;;9.73;82.77
11339;BME280;5724;42.684;23.252;2022-10-16T06:58:54;95218.16;;;9.55;83.28
11339;BME280;5724;42.684;23.252;2022-10-16T07:01:22;95227.84;;;9.73;83.22
11339;BME280;5724;42.684;23.252;2022-10-16T07:03:48;95222.59;;;9.68;83.32
11339;BME280;5724;42.684;23.252;2022-10-16T07:06:16;95191.31;;;9.66;82.64
11339;BME280;5724;42.684;23.252;2022-10-16T07:08:44;95232.59;;;10.06;82.13
11339;BME280;5724;42.684;23.252;2022-10-16T07:11:15;95222.09;;;9.96;82.23
11339;BME280;5724;42.684;23.252;2022-10-16T07:13:42;95230.28;;;9.96;81.94
11339;BME280;5724;42.684;23.252;2022-10-16T07:16:16;95233.00;;;9.96;82.63
11339;BME280;5724;42.684;23.252;2022-10-16T07:18:43;95226.69;;;10.04;83.14
11339;BME280;5724;42.684;23.252;2022-10-16T07:21:15;95239.25;;;9.96;81.47
11339;BME280;5724;42.684;23.252;2022-10-16T07:23:42;95232.84;;;10.13;81.38
11339;BME280;5724;42.684;23.252;2022-10-16T07:26:08;95239.06;;;10.22;80.22
11339;BME280;5724;42.684;23.252;2022-10-16T07:28:33;95236.72;;;10.12;81.07
11339;BME280;5724;42.684;23.252;2022-10-16T07:31:01;95231.59;;;9.90;81.48
11339;BME280;5724;42.684;23.252;2022-10-16T07:33:27;95242.66;;;10.14;80.62
11339;BME280;5724;42.684;23.252;2022-10-16T07:35:54;95242.84;;;10.09;81.49
11339;BME280;5724;42.684;23.252;2022-10-16T07:38:20;95247.34;;;10.35;81.20
11339;BME280;5724;42.684;23.252;2022-10-16T07:40:46;95238.50;;;10.50;80.02
11339;BME280;5724;42.684;23.252;2022-10-16T07:43:12;95246.28;;;10.60;79.65
11339;BME280;5724;42.684;23.252;2022-10-16T07:45:46;95241.66;;;10.73;79.29
11339;BME280;5724;42.684;23.252;2022-10-16T07:48:12;95240.22;;;11.00;77.78
11339;BME280;5724;42.684;23.252;2022-10-16T07:50:38;95247.06;;;10.94;77.08
11339;BME280;5724;42.684;23.252;2022-10-16T07:53:03;95252.19;;;11.07;77.67
11339;BME280;5724;42.684;23.252;2022-10-16T07:55:29;95253.72;;;11.41;76.29
11339;BME280;5724;42.684;23.252;2022-10-16T07:57:54;95254.19;;;11.43;76.19
11339;BME280;5724;42.684;23.252;2022-10-16T08:00:20;95262.28;;;11.52;75.32
11339;BME280;5724;42.684;23.252;2022-10-16T08:02:45;95252.34;;;11.72;74.12
11339;BME280;5724;42.684;23.252;2022-10-16T08:05:11;95256.13;;;11.92;74.35
11339;BME280;5724;42.684;23.252;2022-10-16T08:07:36;95252.22;;;12.05;73.22
11339;BME280;5724;42.684;23.252;2022-10-16T08:10:02;95258.19;;;12.35;72.39
11339;BME280;5724;42.684;23.252;2022-10-16T08:12:27;95247.00;;;12.40;71.80
11339;BME280;5724;42.684;23.252;2022-10-16T08:14:53;95247.50;;;12.58;71.83
11339;BME280;5724;42.684;23.252;2022-10-16T08:17:18;95241.72;;;12.47;70.90
11339;BME280;5724;42.684;23.252;2022-10-16T08:19:46;95249.50;;;12.33;70.42
11339;BME280;5724;42.684;23.252;2022-10-16T08:22:11;95246.53;;;12.38;70.87
11339;BME280;5724;42.684;23.252;2022-10-16T08:24:37;95245.34;;;12.51;70.94
11339;BME280;5724;42.684;23.252;2022-10-16T08:27:03;95247.50;;;12.58;69.11
11339;BME280;5724;42.684;23.252;2022-10-16T08:29:29;95235.44;;;12.75;69.82
11339;BME280;5724;42.684;23.252;2022-10-16T08:31:54;95242.16;;;12.77;68.52
11339;BME280;5724;42.684;23.252;2022-10-16T08:34:20;95237.91;;;12.80;69.20
11339;BME280;5724;42.684;23.252;2022-10-16T08:36:45;95241.88;;;12.82;68.61
11339;BME280;5724;42.684;23.252;2022-10-16T08:39:11;95243.69;;;13.06;67.33
11339;BME280;5724;42.684;23.252;2022-10-16T08:44:54;95234.06;;;13.12;68.30
11339;BME280;5724;42.684;23.252;2022-10-16T08:47:31;95237.03;;;13.51;68.05
11339;BME280;5724;42.684;23.252;2022-10-16T08:50:09;95240.38;;;13.29;66.35
11339;BME280;5724;42.684;23.252;2022-10-16T08:52:39;95230.56;;;13.28;66.10
11339;BME280;5724;42.684;23.252;2022-10-16T08:55:06;95243.47;;;13.27;66.00
11339;BME280;5724;42.684;23.252;2022-10-16T08:57:32;95237.53;;;13.41;65.50
11339;BME280;5724;42.684;23.252;2022-10-16T09:00:00;95248.69;;;13.48;66.35
11339;BME280;5724;42.684;23.252;2022-10-16T09:02:56;95250.81;;;13.70;64.56
11339;BME280;5724;42.684;23.252;2022-10-16T09:08:35;95243.53;;;13.78;62.04
11339;BME280;5724;42.684;23.252;2022-10-16T09:11:15;95242.66;;;13.58;62.56
11339;BME280;5724;42.684;23.252;2022-10-16T09:14:07;95245.84;;;13.76;61.17
11339;BME280;5724;42.684;23.252;2022-10-16T09:16:57;95240.09;;;13.81;62.26
11339;BME280;5724;42.684;23.252;2022-10-16T09:19:38;95238.41;;;14.12;62.04
11339;BME280;5724;42.684;23.252;2022-10-16T09:22:13;95234.00;;;14.26;61.41
11339;BME280;5724;42.684;23.252;2022-10-16T09:24:40;95235.59;;;14.27;59.98
11339;BME280;5724;42.684;23.252;2022-10-16T09:27:11;95242.84;;;14.36;59.54
11339;BME280;5724;42.684;23.252;2022-10-16T09:29:37;95242.81;;;14.51;57.57
11339;BME280;5724;42.684;23.252;2022-10-16T09:32:18;95236.50;;;14.51;58.58
11339;BME280;5724;42.684;23.252;2022-10-16T09:34:52;95242.88;;;14.74;55.18
11339;BME280;5724;42.684;23.252;2022-10-16T09:37:21;95242.28;;;14.84;55.86
11339;BME280;5724;42.684;23.252;2022-10-16T09:39:52;95253.56;;;14.99;56.07
11339;BME280;5724;42.684;23.252;2022-10-16T09:42:42;95246.59;;;15.05;53.18
11339;BME280;5724;42.684;23.252;2022-10-16T09:45:20;95232.41;;;15.03;54.29
11339;BME280;5724;42.684;23.252;2022-10-16T09:47:46;95237.16;;;15.25;53.96
11339;BME280;5724;42.684;23.252;2022-10-16T09:50:26;95237.81;;;15.41;54.43
11339;BME280;5724;42.684;23.252;2022-10-16T09:53:07;95231.38;;;15.80;52.60
11339;BME280;5724;42.684;23.252;2022-10-16T09:55:35;95228.03;;;15.67;52.58
11339;BME280;5724;42.684;23.252;2022-10-16T09:58:01;95226.75;;;15.87;52.24
11339;BME280;5724;42.684;23.252;2022-10-16T10:00:26;95225.22;;;15.90;52.29
11339;BME280;5724;42.684;23.252;2022-10-16T10:02:53;95231.53;;;15.90;51.39
11339;BME280;5724;42.684;23.252;2022-10-16T10:05:26;95222.00;;;15.84;50.42
11339;BME280;5724;42.684;23.252;2022-10-16T10:08:02;95223.94;;;16.10;49.37
11339;BME280;5724;42.684;23.252;2022-10-16T10:10:34;95211.81;;;16.15;49.42
11339;BME280;5724;42.684;23.252;2022-10-16T10:13:02;95222.34;;;16.09;48.90
11339;BME280;5724;42.684;23.252;2022-10-16T10:15:32;95218.56;;;16.21;49.48
11339;BME280;5724;42.684;23.252;2022-10-16T10:17:58;95215.66;;;16.40;47.77
11339;BME280;5724;42.684;23.252;2022-10-16T10:20:27;95211.66;;;15.78;48.17
11339;BME280;5724;42.684;23.252;2022-10-16T10:22:55;95222.78;;;15.85;47.30
11339;BME280;5724;42.684;23.252;2022-10-16T10:34:01;95200.91;;;16.55;48.19
11339;BME280;5724;42.684;23.252;2022-10-16T10:38:59;95198.75;;;16.72;47.29
11339;BME280;5724;42.684;23.252;2022-10-16T10:55:21;95181.28;;;16.64;47.24
11339;BME280;5724;42.684;23.252;2022-10-16T11:06:28;95160.22;;;16.82;45.26
11339;BME280;5724;42.684;23.252;2022-10-16T11:09:15;95167.03;;;16.58;45.67
11339;BME280;5724;42.684;23.252;2022-10-16T11:11:54;95161.22;;;16.67;44.45
11339;BME280;5724;42.684;23.252;2022-10-16T11:14:26;95169.75;;;16.55;45.20
11339;BME280;5724;42.684;23.252;2022-10-16T11:16:59;95160.94;;;16.76;44.33
11339;BME280;5724;42.684;23.252;2022-10-16T11:22:36;95157.56;;;16.93;44.20
11339;BME280;5724;42.684;23.252;2022-10-16T11:25:17;95155.88;;;17.22;44.16
11339;BME280;5724;42.684;23.252;2022-10-16T11:27:51;95157.47;;;17.27;43.01
11339;BME280;5724;42.684;23.252;2022-10-16T11:30:25;95149.88;;;17.16;41.52
11339;BME280;5724;42.684;23.252;2022-10-16T11:38:16;95150.09;;;16.94;44.46
11339;BME280;5724;42.684;23.252;2022-10-16T11:40:48;95127.84;;;17.20;45.34
11339;BME280;5724;42.684;23.252;2022-10-16T11:43:26;95145.03;;;16.99;44.22
11339;BME280;5724;42.684;23.252;2022-10-16T11:46:01;95155.47;;;17.20;44.54
11339;BME280;5724;42.684;23.252;2022-10-16T11:48:35;95153.09;;;17.19;43.12
11339;BME280;5724;42.684;23.252;2022-10-16T11:51:25;95157.44;;;17.23;43.90
11339;BME280;5724;42.684;23.252;2022-10-16T11:56:37;95153.25;;;17.40;42.36
11339;BME280;5724;42.684;23.252;2022-10-16T11:59:12;95150.50;;;17.40;44.30
11339;BME280;5724;42.684;23.252;2022-10-16T12:05:18;95152.19;;;17.55;42.67
11339;BME280;5724;42.684;23.252;2022-10-16T12:08:04;95153.28;;;17.43;43.06
11339;BME280;5724;42.684;23.252;2022-10-16T12:10:31;95145.44;;;17.05;43.72
11339;BME280;5724;42.684;23.252;2022-10-16T12:13:25;95146.47;;;17.30;44.34
11339;BME280;5724;42.684;23.252;2022-10-16T12:15:50;95145.91;;;17.62;42.48
11339;BME280;5724;42.684;23.252;2022-10-16T12:18:23;95149.91;;;17.68;39.27
11339;BME280;5724;42.684;23.252;2022-10-16T12:20:59;95147.47;;;17.59;40.04
11339;BME280;5724;42.684;23.252;2022-10-16T12:23:29;95147.53;;;17.66;40.56
11339;BME280;5724;42.684;23.252;2022-10-16T12:25:57;95156.09;;;17.47;40.86
11339;BME280;5724;42.684;23.252;2022-10-16T12:28:29;95141.97;;;17.63;41.09
11339;BME280;5724;42.684;23.252;2022-10-16T12:31:06;95153.97;;;17.81;42.07
11339;BME280;5724;42.684;23.252;2022-10-16T12:36:02;95149.88;;;17.64;41.62
11339;BME280;5724;42.684;23.252;2022-10-16T12:38:45;95147.44;;;17.52;42.17
11339;BME280;5724;42.684;23.252;2022-10-16T12:41:11;95145.34;;;17.38;43.69
11339;BME280;5724;42.684;23.252;2022-10-16T12:48:30;95152.44;;;17.91;42.17
11339;BME280;5724;42.684;23.252;2022-10-16T12:50:56;95148.94;;;18.01;41.86
11339;BME280;5724;42.684;23.252;2022-10-16T12:53:24;95162.44;;;18.06;40.86
11339;BME280;5724;42.684;23.252;2022-10-16T12:58:56;95155.84;;;18.36;40.41
11339;BME280;5724;42.684;23.252;2022-10-16T13:06:50;95165.28;;;18.27;41.20
11339;BME280;5724;42.684;23.252;2022-10-16T13:12:01;95165.25;;;18.20;41.26
11339;BME280;5724;42.684;23.252;2022-10-16T13:20:01;95164.16;;;18.36;42.17
11339;BME280;5724;42.684;23.252;2022-10-16T13:22:41;95153.91;;;18.47;42.21
11339;BME280;5724;42.684;23.252;2022-10-16T13:26:19;95153.13;;;18.46;41.74
11339;BME280;5724;42.684;23.252;2022-10-16T13:28:13;95163.00;;;18.44;41.09
11339;BME280;5724;42.684;23.252;2022-10-16T13:30:42;95160.63;;;18.49;41.20
11339;BME280;5724;42.684;23.252;2022-10-16T13:33:17;95159.50;;;18.61;41.30
11339;BME280;5724;42.684;23.252;2022-10-16T13:35:51;95162.34;;;18.75;42.08
11339;BME280;5724;42.684;23.252;2022-10-16T13:38:23;95159.91;;;18.63;42.07
11339;BME280;5724;42.684;23.252;2022-10-16T13:43:19;95173.22;;;18.33;39.08
11339;BME280;5724;42.684;23.252;2022-10-16T13:45:57;95165.41;;;18.56;39.49
11339;BME280;5724;42.684;23.252;2022-10-16T13:48:23;95167.47;;;18.70;39.63
11339;BME280;5724;42.684;23.252;2022-10-16T13:51:14;95175.81;;;18.87;39.26
11339;BME280;5724;42.684;23.252;2022-10-16T13:53:41;95175.03;;;18.91;38.43
11339;BME280;5724;42.684;23.252;2022-10-16T13:56:11;95166.69;;;18.73;39.34
11339;BME280;5724;42.684;23.252;2022-10-16T13:58:37;95167.88;;;18.75;39.53
11339;BME280;5724;42.684;23.252;2022-10-16T14:01:05;95168.28;;;18.74;39.17
11339;BME280;5724;42.684;23.252;2022-10-16T14:03:33;95175.75;;;18.66;40.08
11339;BME280;5724;42.684;23.252;2022-10-16T14:06:02;95167.50;;;18.87;40.34
11339;BME280;5724;42.684;23.252;2022-10-16T14:09:22;95170.94;;;18.56;39.90
11339;BME280;5724;42.684;23.252;2022-10-16T14:11:46;95177.63;;;18.44;40.24
11339;BME280;5724;42.684;23.252;2022-10-16T14:14:14;95170.88;;;18.35;39.79
11339;BME280;5724;42.684;23.252;2022-10-16T14:16:41;95168.50;;;18.37;39.25
11339;BME280;5724;42.684;23.252;2022-10-16T14:19:28;95180.16;;;18.01;40.06
11339;BME280;5724;42.684;23.252;2022-10-16T14:21:55;95177.44;;;18.05;39.85
11339;BME280;5724;42.684;23.252;2022-10-16T14:24:26;95170.22;;;17.86;39.88
11339;BME280;5724;42.684;23.252;2022-10-16T14:26:52;95163.91;;;17.93;38.94
11339;BME280;5724;42.684;23.252;2022-10-16T14:29:21;95177.75;;;17.93;39.24
11339;BME280;5724;42.684;23.252;2022-10-16T14:32:23;95175.97;;;17.67;39.05
11339;BME280;5724;42.684;23.252;2022-10-16T14:34:53;95178.13;;;17.43;38.83
11339;BME280;5724;42.684;23.252;2022-10-16T14:37:30;95185.63;;;17.43;39.77
11339;BME280;5724;42.684;23.252;2022-10-16T14:39:56;95186.00;;;17.38;40.06
11339;BME280;5724;42.684;23.252;2022-10-16T14:42:24;95175.50;;;17.13;40.40
11339;BME280;5724;42.684;23.252;2022-10-16T14:44:51;95188.63;;;17.24;40.21
11339;BME280;5724;42.684;23.252;2022-10-16T14:47:22;95186.97;;;17.15;40.22
11339;BME280;5724;42.684;23.252;2022-10-16T14:49:52;95194.44;;;17.11;39.77